Time;durP1;ratioP1;P1;durP2;ratioP2;P2;SDS_P1;SDS_P2;PMS_P1;PMS_P2;Temp;Humidity;BMP_temperature;BMP_pressure;BME280_temperature;BME280_humidity;BME280_pressure;Samples;Min_cycle;Max_cycle;Signal;HPM_P1;HPM_P2
2022/10/14 00:04:25;;;;;;;8.18;6.03;;;9.40;99.90;;;;;;20720592;28;20205;-80
2022/10/14 00:14:26;;;;;;;7.78;5.22;;;9.20;99.90;;;;;;20736417;28;20117;-81
2022/10/14 00:24:27;;;;;;;12.68;6.90;;;9.10;99.90;;;;;;20722106;28;20397;-80
2022/10/14 00:34:28;;;;;;;11.63;7.18;;;9.00;99.90;;;;;;20728580;28;20038;-80
2022/10/14 00:44:29;;;;;;;11.63;7.97;;;9.20;99.90;;;;;;20713694;28;20041;-80
2022/10/14 00:54:55;;;;;;;7.55;5.90;;;9.30;99.90;;;;;;20683040;28;20665;-80
2022/10/14 01:04:57;;;;;;;13.52;6.70;;;9.60;99.90;;;;;;20596665;28;20042;-81
2022/10/14 01:15:22;;;;;;;9.25;5.90;;;9.70;99.90;;;;;;20584778;28;20094;-81
2022/10/14 01:25:34;;;;;;;9.20;5.32;;;9.90;99.90;;;;;;20604880;28;20596;-81
2022/10/14 01:35:50;;;;;;;13.60;7.70;;;10.00;99.90;;;;;;20601306;28;20046;-81
2022/10/14 01:45:54;;;;;;;9.55;4.97;;;10.10;99.90;;;;;;20576186;28;20919;-80
2022/10/14 01:55:57;;;;;;;10.07;5.45;;;10.10;99.90;;;;;;20600491;28;20053;-81
2022/10/14 02:06:05;;;;;;;16.60;8.00;;;10.20;99.90;;;;;;20668480;28;20045;-81
2022/10/14 02:16:21;;;;;;;17.48;7.78;;;10.20;99.90;;;;;;20668994;28;20529;-81
2022/10/14 02:26:24;;;;;;;14.55;8.60;;;10.30;99.90;;;;;;20672099;28;20502;-81
2022/10/14 02:36:27;;;;;;;14.27;7.43;;;10.40;99.90;;;;;;20671616;28;20529;-81
2022/10/14 02:46:28;;;;;;;15.75;9.10;;;10.50;99.90;;;;;;20659084;28;20097;-81
2022/10/14 02:56:29;;;;;;;19.55;10.32;;;10.50;99.90;;;;;;20657303;28;20092;-81
2022/10/14 03:06:30;;;;;;;17.70;11.65;;;10.60;99.90;;;;;;20654375;28;20046;-81
2022/10/14 03:16:31;;;;;;;19.20;10.63;;;10.60;99.90;;;;;;20650087;28;20037;-81
2022/10/14 03:26:32;;;;;;;14.40;8.68;;;10.60;99.90;;;;;;20662633;28;20033;-81
2022/10/14 03:36:33;;;;;;;13.10;7.20;;;10.70;99.90;;;;;;20687611;28;21011;-81
2022/10/14 03:46:34;;;;;;;15.88;9.48;;;10.70;99.90;;;;;;20691367;28;20405;-81
2022/10/14 03:56:35;;;;;;;15.68;9.45;;;10.80;99.90;;;;;;20671120;28;20044;-81
2022/10/14 04:06:36;;;;;;;12.02;7.72;;;10.80;99.90;;;;;;20667187;28;20138;-80
2022/10/14 04:16:37;;;;;;;16.75;9.23;;;10.90;99.90;;;;;;20669948;28;20053;-80
2022/10/14 04:26:38;;;;;;;19.17;9.27;;;11.00;99.90;;;;;;20667831;28;20042;-80
2022/10/14 04:36:40;;;;;;;16.33;8.95;;;11.10;99.90;;;;;;20664805;28;20046;-80
2022/10/14 04:46:41;;;;;;;16.02;7.97;;;11.20;99.90;;;;;;20675100;28;20169;-81
2022/10/14 04:56:42;;;;;;;17.13;9.93;;;11.20;99.90;;;;;;20669385;28;20055;-80
2022/10/14 05:06:44;;;;;;;21.45;11.40;;;11.30;99.90;;;;;;20681533;28;20066;-80
2022/10/14 05:16:45;;;;;;;22.30;11.32;;;11.30;99.90;;;;;;20660456;28;20035;-81
2022/10/14 05:26:46;;;;;;;17.60;10.07;;;11.50;99.90;;;;;;20660963;28;20053;-81
2022/10/14 05:36:47;;;;;;;21.25;10.63;;;11.60;99.90;;;;;;20654212;28;20034;-81
2022/10/14 05:46:48;;;;;;;21.15;10.77;;;11.70;99.90;;;;;;20640035;28;20046;-81
2022/10/14 05:56:49;;;;;;;17.60;11.00;;;11.90;99.90;;;;;;20650163;28;20103;-81
2022/10/14 06:06:50;;;;;;;17.10;9.45;;;12.00;99.90;;;;;;20652943;28;20046;-81
2022/10/14 06:16:51;;;;;;;18.15;9.18;;;12.10;99.90;;;;;;20639379;28;20041;-80
2022/10/14 06:26:52;;;;;;;13.82;7.03;;;12.20;99.90;;;;;;20636509;28;20065;-81
2022/10/14 06:36:53;;;;;;;11.35;4.93;;;12.40;99.90;;;;;;20638718;28;20038;-81
2022/10/14 06:46:54;;;;;;;10.55;6.03;;;12.40;99.90;;;;;;20634378;28;20046;-82
2022/10/14 06:56:55;;;;;;;6.80;3.95;;;12.50;99.90;;;;;;20628854;28;20038;-82
2022/10/14 07:06:57;;;;;;;7.00;3.83;;;12.60;99.90;;;;;;20613751;28;20118;-82
2022/10/14 07:16:59;;;;;;;8.75;4.63;;;12.70;99.90;;;;;;20640243;28;20058;-82
2022/10/14 07:27:01;;;;;;;9.50;4.53;;;12.80;99.90;;;;;;20627287;28;20708;-82
2022/10/14 07:37:03;;;;;;;10.18;6.07;;;12.90;99.90;;;;;;20610292;28;20078;-81
2022/10/14 07:47:04;;;;;;;10.27;5.50;;;13.10;99.90;;;;;;20631882;28;20143;-82
2022/10/14 07:57:05;;;;;;;12.23;6.15;;;13.20;99.90;;;;;;20623395;28;20046;-82
2022/10/14 08:07:06;;;;;;;12.35;7.07;;;13.30;99.90;;;;;;20621041;28;20151;-82
2022/10/14 08:17:07;;;;;;;15.75;9.30;;;13.50;99.90;;;;;;20644396;28;20232;-82
2022/10/14 08:27:09;;;;;;;23.00;11.60;;;13.50;99.90;;;;;;20644929;28;20041;-81
2022/10/14 08:37:10;;;;;;;20.85;9.65;;;13.60;99.90;;;;;;20639702;28;20080;-81
2022/10/14 08:47:15;;;;;;;16.55;9.60;;;13.70;99.90;;;;;;20621571;28;20471;-81
2022/10/14 08:57:19;;;;;;;21.88;9.95;;;13.80;99.90;;;;;;20617312;28;20105;-81
2022/10/14 09:07:20;;;;;;;12.57;6.90;;;13.80;99.90;;;;;;20569058;28;20042;-82
2022/10/14 09:17:26;;;;;;;13.02;6.70;;;13.90;99.90;;;;;;20566182;28;20045;-81
2022/10/14 09:27:28;;;;;;;10.55;5.63;;;14.00;99.90;;;;;;20570306;28;20093;-81
2022/10/14 09:37:36;;;;;;;11.30;5.57;;;14.00;99.90;;;;;;20587586;28;20085;-81
2022/10/14 09:48:06;;;;;;;9.65;5.90;;;14.10;99.90;;;;;;20558173;28;20046;-81
2022/10/14 09:58:15;;;;;;;10.35;5.95;;;14.10;99.90;;;;;;20612422;28;20273;-81
2022/10/14 10:08:18;;;;;;;9.50;4.53;;;14.10;99.90;;;;;;20644726;28;20053;-80
2022/10/14 10:18:19;;;;;;;7.90;4.80;;;14.30;99.90;;;;;;20661390;28;20585;-81
2022/10/14 10:28:31;;;;;;;8.07;4.50;;;14.30;99.90;;;;;;20656135;28;20397;-81
2022/10/14 10:38:54;;;;;;;7.20;4.13;;;14.30;99.90;;;;;;20654013;28;20065;-83
2022/10/14 10:49:16;;;;;;;5.00;3.70;;;14.40;99.90;;;;;;20605142;28;20202;-81
2022/10/14 10:59:22;;;;;;;4.90;3.53;;;14.50;99.90;;;;;;20627417;28;20101;-81
2022/10/14 11:20:22;;;;;;;4.68;2.60;;;14.60;99.90;;;;;;20635597;28;20767;-81
2022/10/14 11:30:46;;;;;;;6.38;2.63;;;14.70;99.90;;;;;;20619903;28;21536;-81
2022/10/14 11:41:02;;;;;;;4.03;2.78;;;14.70;99.90;;;;;;20630605;28;20430;-82
2022/10/14 11:51:16;;;;;;;3.95;2.38;;;14.70;99.90;;;;;;20634540;28;20070;-81
2022/10/14 12:01:23;;;;;;;3.88;2.38;;;14.70;99.90;;;;;;20639858;28;20757;-81
2022/10/14 12:11:28;;;;;;;2.97;1.75;;;14.80;99.90;;;;;;20656360;28;20157;-81
2022/10/14 12:21:42;;;;;;;3.00;2.03;;;14.90;99.90;;;;;;20620423;28;20503;-81
2022/10/14 12:31:49;;;;;;;3.95;2.55;;;15.10;99.90;;;;;;20645827;28;20125;-81
2022/10/14 12:41:54;;;;;;;4.20;1.80;;;15.00;99.90;;;;;;20645231;28;20050;-81
2022/10/14 12:52:00;;;;;;;8.20;4.03;;;15.20;99.90;;;;;;20642980;28;20545;-81
2022/10/14 13:02:31;;;;;;;6.03;2.67;;;15.10;99.90;;;;;;20644853;28;20691;-82
2022/10/14 13:12:40;;;;;;;4.90;2.78;;;15.00;99.90;;;;;;20655105;28;20132;-81
2022/10/14 13:22:42;;;;;;;3.92;2.30;;;14.90;99.90;;;;;;20651831;28;20077;-81
2022/10/14 13:32:56;;;;;;;3.78;2.92;;;14.70;99.90;;;;;;20634201;28;20389;-81
2022/10/14 13:42:59;;;;;;;6.57;3.75;;;14.90;99.90;;;;;;20627226;28;21514;-81
2022/10/14 13:53:05;;;;;;;5.22;2.35;;;15.20;99.90;;;;;;20639063;28;20094;-82
2022/10/14 14:03:34;;;;;;;6.00;3.15;;;15.30;99.90;;;;;;20651122;28;20292;-81
2022/10/14 14:13:45;;;;;;;7.43;4.75;;;15.30;99.90;;;;;;20629977;28;20673;-82
2022/10/14 14:23:55;;;;;;;4.47;2.80;;;15.30;99.90;;;;;;20632478;28;20676;-82
2022/10/14 14:33:58;;;;;;;4.43;1.58;;;15.50;99.90;;;;;;20613237;28;20030;-81
2022/10/14 14:44:05;;;;;;;3.05;1.70;;;15.90;99.90;;;;;;20641514;28;20061;-82
2022/10/14 14:54:07;;;;;;;2.60;1.23;;;16.00;99.90;;;;;;20624346;28;21611;-81
2022/10/14 15:04:20;;;;;;;2.53;1.15;;;16.10;99.90;;;;;;20640021;28;20521;-81
2022/10/14 15:14:46;;;;;;;5.80;2.45;;;16.10;99.90;;;;;;20636590;28;20065;-81
2022/10/14 15:25:08;;;;;;;3.15;1.90;;;15.70;99.90;;;;;;20626775;28;20499;-81
2022/10/14 15:35:14;;;;;;;3.92;1.73;;;15.30;99.90;;;;;;20646822;28;20604;-82
2022/10/14 15:45:15;;;;;;;3.47;2.00;;;15.20;99.90;;;;;;20649542;28;20073;-82
2022/10/14 15:55:19;;;;;;;3.40;1.52;;;15.00;99.90;;;;;;20627770;28;20104;-83
2022/10/14 16:05:21;;;;;;;2.38;1.38;;;14.80;99.90;;;;;;20654441;28;20097;-82
2022/10/14 16:16:06;;;;;;;3.50;1.52;;;14.70;99.90;;;;;;20653279;28;20240;-81
2022/10/14 16:26:07;;;;;;;2.90;2.05;;;14.60;99.90;;;;;;20472657;28;20801;-82
2022/10/14 16:36:11;;;;;;;3.45;1.83;;;14.40;99.90;;;;;;20637387;28;20094;-82
2022/10/14 16:46:13;;;;;;;4.97;3.45;;;14.20;99.90;;;;;;20631455;28;20161;-82
2022/10/14 17:06:37;;;;;;;2.67;1.38;;;14.00;99.90;;;;;;20651413;28;20043;-81
2022/10/14 17:16:38;;;;;;;2.85;1.58;;;13.90;99.90;;;;;;20654785;28;20037;-82
2022/10/14 17:26:39;;;;;;;4.78;2.38;;;13.80;99.90;;;;;;20631151;28;20097;-82
2022/10/14 17:36:40;;;;;;;5.28;1.90;;;13.70;99.90;;;;;;20644398;28;20235;-83
2022/10/14 17:46:42;;;;;;;5.05;2.20;;;13.60;99.90;;;;;;20630046;28;20565;-82
2022/10/14 17:56:42;;;;;;;5.50;2.70;;;13.60;99.90;;;;;;20654717;28;20088;-81
2022/10/14 18:06:45;;;;;;;5.35;3.25;;;13.50;99.90;;;;;;20654836;28;20042;-82
2022/10/14 18:16:47;;;;;;;4.32;2.00;;;13.60;99.90;;;;;;20638236;28;20238;-82
2022/10/14 18:26:49;;;;;;;4.53;2.45;;;13.60;99.90;;;;;;20634785;28;20104;-82
2022/10/14 18:36:50;;;;;;;6.53;3.38;;;13.40;99.90;;;;;;20635946;28;20042;-82
2022/10/14 18:46:52;;;;;;;5.43;2.60;;;13.40;99.90;;;;;;20641885;28;20038;-82
2022/10/14 18:56:54;;;;;;;5.55;3.80;;;13.30;99.90;;;;;;20620893;28;20054;-82
2022/10/14 19:06:55;;;;;;;5.50;3.17;;;13.30;99.90;;;;;;20637326;28;20398;-82
2022/10/14 19:16:56;;;;;;;7.38;3.83;;;13.30;99.90;;;;;;20642750;28;20453;-81
2022/10/14 19:26:57;;;;;;;7.00;3.08;;;13.30;99.90;;;;;;20620512;28;20410;-83
2022/10/14 19:36:59;;;;;;;4.82;3.13;;;13.20;99.90;;;;;;20620759;28;20041;-82
2022/10/14 19:47:00;;;;;;;5.65;3.33;;;13.10;99.90;;;;;;20636044;28;20030;-82
2022/10/14 19:57:01;;;;;;;6.30;4.13;;;13.00;99.90;;;;;;20620904;28;20044;-82
2022/10/14 20:07:02;;;;;;;7.88;4.20;;;12.90;99.90;;;;;;20629144;28;20046;-82
2022/10/14 20:17:03;;;;;;;9.77;4.55;;;12.90;99.90;;;;;;20649994;28;20406;-82
2022/10/14 20:27:04;;;;;;;7.97;5.68;;;12.80;99.90;;;;;;20623819;28;20414;-83
2022/10/14 20:37:05;;;;;;;6.20;3.25;;;12.80;99.90;;;;;;20634333;28;20038;-82
2022/10/14 20:47:07;;;;;;;6.72;3.92;;;12.70;99.90;;;;;;20630958;28;20050;-83
2022/10/14 20:57:08;;;;;;;6.32;4.00;;;12.60;99.90;;;;;;20645760;28;20513;-83
2022/10/14 21:07:09;;;;;;;8.45;4.30;;;12.50;99.90;;;;;;20671484;28;20054;-81
2022/10/14 21:17:10;;;;;;;7.97;4.68;;;12.50;99.90;;;;;;20628865;28;20044;-82
2022/10/14 21:27:12;;;;;;;9.40;5.05;;;12.50;99.90;;;;;;20609548;28;21462;-81
2022/10/14 21:37:16;;;;;;;7.07;4.20;;;12.50;99.90;;;;;;20634614;28;20116;-82
2022/10/14 21:47:17;;;;;;;6.88;4.05;;;12.40;99.90;;;;;;20645101;28;20144;-82
2022/10/14 21:57:21;;;;;;;8.50;5.28;;;12.50;99.90;;;;;;20626110;28;20556;-81
2022/10/14 22:07:22;;;;;;;7.90;3.65;;;12.40;99.90;;;;;;20639384;28;20575;-82
2022/10/14 22:17:23;;;;;;;16.65;6.07;;;12.30;99.90;;;;;;20638130;28;20498;-82
2022/10/14 22:27:24;;;;;;;5.78;3.65;;;12.20;99.90;;;;;;20632755;28;20037;-82
2022/10/14 22:37:25;;;;;;;7.00;5.43;;;12.10;99.90;;;;;;20633371;28;20045;-81
2022/10/14 22:47:26;;;;;;;9.68;6.72;;;12.10;99.90;;;;;;20627549;28;20054;-81
2022/10/14 22:57:27;;;;;;;10.65;6.90;;;12.20;99.90;;;;;;20627565;28;20290;-81
2022/10/14 23:07:28;;;;;;;16.23;8.10;;;12.30;99.90;;;;;;20636901;28;20041;-81
2022/10/14 23:17:29;;;;;;;9.27;5.78;;;12.40;99.90;;;;;;20631415;28;20293;-82
2022/10/14 23:27:30;;;;;;;11.30;6.82;;;12.40;99.90;;;;;;20624109;28;20082;-81
2022/10/14 23:37:31;;;;;;;13.70;7.32;;;12.30;99.90;;;;;;20625578;28;20042;-81
2022/10/14 23:47:32;;;;;;;14.95;6.38;;;12.40;99.90;;;;;;20630362;28;20034;-81
2022/10/14 23:57:33;;;;;;;11.82;8.13;;;12.40;99.90;;;;;;20642117;28;20046;-82
